Gleeson, Arizona
Current Conditions -  °F | °C
As of 8:56 PM on Friday 19 Dec 2014 (Local Time) from KDUG Reporting Station
Clear Clear  
Wind Chill: 29°   Ceiling: Unl
Heat Index: 33°   Visibility: 10mi
Dew Point: 29°   Wind: 5mph
Humidity: 85%   Direction: 290°WNW
Pressure: 30.16"   Gusts: NA
Location:  31.7341°N, 109.494°W
Report Text: KDUG 200356Z AUTO 29004KT 10SM CLR 01/M02 A3016 RMK AO2 SLP216 T00061017
Loading
Personal Weather Stations






























Interactive Weather Map New forecast layout! Learn more

10-Day Weather Forecast

Advertisements
Track Severe Weather on mobile